sensor_id;sensor_type;location;lat;lon;timestamp;pressure;altitude;pressure_sealevel;temperature
81399;BMP280;70853;50.074;10.224;2023-08-30T00:00:45;97971.50;;;14.19
81399;BMP280;70853;50.074;10.224;2023-08-30T00:03:11;97959.47;;;14.00
81399;BMP280;70853;50.074;10.224;2023-08-30T00:05:40;97966.09;;;13.99
81399;BMP280;70853;50.074;10.224;2023-08-30T00:08:06;97962.69;;;13.99
81399;BMP280;70853;50.074;10.224;2023-08-30T00:10:32;97962.97;;;13.93
81399;BMP280;70853;50.074;10.224;2023-08-30T00:12:57;97950.41;;;13.86
81399;BMP280;70853;50.074;10.224;2023-08-30T00:15:23;97959.44;;;13.91
81399;BMP280;70853;50.074;10.224;2023-08-30T00:17:50;97973.56;;;13.91
81399;BMP280;70853;50.074;10.224;2023-08-30T00:20:20;97965.34;;;13.80
81399;BMP280;70853;50.074;10.224;2023-08-30T00:22:47;97966.22;;;13.92
81399;BMP280;70853;50.074;10.224;2023-08-30T00:25:15;97965.91;;;13.78
81399;BMP280;70853;50.074;10.224;2023-08-30T00:27:41;97973.38;;;13.80
81399;BMP280;70853;50.074;10.224;2023-08-30T00:30:11;97979.81;;;13.67
81399;BMP280;70853;50.074;10.224;2023-08-30T00:32:37;97963.19;;;13.68
81399;BMP280;70853;50.074;10.224;2023-08-30T00:35:03;97951.41;;;13.45
81399;BMP280;70853;50.074;10.224;2023-08-30T00:37:29;97973.63;;;13.64
81399;BMP280;70853;50.074;10.224;2023-08-30T00:39:55;97973.47;;;13.62
81399;BMP280;70853;50.074;10.224;2023-08-30T00:42:21;97966.66;;;13.52
81399;BMP280;70853;50.074;10.224;2023-08-30T00:44:48;97948.94;;;13.39
81399;BMP280;70853;50.074;10.224;2023-08-30T00:47:13;97961.53;;;13.46
81399;BMP280;70853;50.074;10.224;2023-08-30T00:49:40;97942.00;;;13.26
81399;BMP280;70853;50.074;10.224;2023-08-30T00:52:08;97966.03;;;13.34
81399;BMP280;70853;50.074;10.224;2023-08-30T00:54:38;97973.34;;;13.34
81399;BMP280;70853;50.074;10.224;2023-08-30T00:57:04;97961.25;;;13.15
81399;BMP280;70853;50.074;10.224;2023-08-30T00:59:32;97967.69;;;13.30
81399;BMP280;70853;50.074;10.224;2023-08-30T01:01:59;97960.63;;;13.24
81399;BMP280;70853;50.074;10.224;2023-08-30T01:04:27;97956.00;;;13.35
81399;BMP280;70853;50.074;10.224;2023-08-30T01:06:54;97955.34;;;13.17
81399;BMP280;70853;50.074;10.224;2023-08-30T01:09:20;97959.13;;;13.14
81399;BMP280;70853;50.074;10.224;2023-08-30T01:14:38;97955.19;;;13.15
81399;BMP280;70853;50.074;10.224;2023-08-30T01:17:07;97953.22;;;13.06
81399;BMP280;70853;50.074;10.224;2023-08-30T01:20:01;97960.81;;;13.09
81399;BMP280;70853;50.074;10.224;2023-08-30T01:25:53;97960.25;;;13.11
81399;BMP280;70853;50.074;10.224;2023-08-30T01:28:23;97956.00;;;13.08
81399;BMP280;70853;50.074;10.224;2023-08-30T01:30:55;97965.16;;;13.05
81399;BMP280;70853;50.074;10.224;2023-08-30T01:33:21;97970.06;;;12.99
81399;BMP280;70853;50.074;10.224;2023-08-30T01:35:48;97968.78;;;13.00
81399;BMP280;70853;50.074;10.224;2023-08-30T01:38:15;97971.31;;;12.98
81399;BMP280;70853;50.074;10.224;2023-08-30T01:40:42;97968.56;;;12.88
81399;BMP280;70853;50.074;10.224;2023-08-30T01:43:12;97963.44;;;13.00
81399;BMP280;70853;50.074;10.224;2023-08-30T01:45:40;97966.81;;;13.00
81399;BMP280;70853;50.074;10.224;2023-08-30T01:48:26;97970.28;;;12.93
81399;BMP280;70853;50.074;10.224;2023-08-30T01:50:53;97966.94;;;12.75
81399;BMP280;70853;50.074;10.224;2023-08-30T01:53:24;97968.25;;;12.84
81399;BMP280;70853;50.074;10.224;2023-08-30T01:55:50;97972.63;;;12.79
81399;BMP280;70853;50.074;10.224;2023-08-30T01:58:16;97970.41;;;12.68
81399;BMP280;70853;50.074;10.224;2023-08-30T02:00:42;97973.06;;;12.68
81399;BMP280;70853;50.074;10.224;2023-08-30T02:03:11;97969.94;;;12.62
81399;BMP280;70853;50.074;10.224;2023-08-30T02:06:02;97977.66;;;12.58
81399;BMP280;70853;50.074;10.224;2023-08-30T02:08:37;97969.56;;;12.66
81399;BMP280;70853;50.074;10.224;2023-08-30T02:11:07;97957.34;;;12.72
81399;BMP280;70853;50.074;10.224;2023-08-30T02:13:34;97971.03;;;12.76
81399;BMP280;70853;50.074;10.224;2023-08-30T02:16:00;97968.53;;;12.78
81399;BMP280;70853;50.074;10.224;2023-08-30T02:18:27;97963.00;;;12.76
81399;BMP280;70853;50.074;10.224;2023-08-30T02:20:56;97963.63;;;12.84
81399;BMP280;70853;50.074;10.224;2023-08-30T02:23:23;97951.03;;;12.60
81399;BMP280;70853;50.074;10.224;2023-08-30T02:25:50;97944.44;;;12.61
81399;BMP280;70853;50.074;10.224;2023-08-30T02:28:16;97954.19;;;12.66
81399;BMP280;70853;50.074;10.224;2023-08-30T02:30:41;97925.97;;;12.38
81399;BMP280;70853;50.074;10.224;2023-08-30T02:33:07;97955.88;;;12.45
81399;BMP280;70853;50.074;10.224;2023-08-30T02:35:33;97959.00;;;12.51
81399;BMP280;70853;50.074;10.224;2023-08-30T02:37:58;97962.13;;;12.57
81399;BMP280;70853;50.074;10.224;2023-08-30T02:40:24;97963.66;;;12.50
81399;BMP280;70853;50.074;10.224;2023-08-30T02:42:51;97960.66;;;12.29
81399;BMP280;70853;50.074;10.224;2023-08-30T02:45:16;97958.94;;;12.24
81399;BMP280;70853;50.074;10.224;2023-08-30T02:47:44;97952.94;;;12.16
81399;BMP280;70853;50.074;10.224;2023-08-30T02:50:10;97957.50;;;12.23
81399;BMP280;70853;50.074;10.224;2023-08-30T02:52:45;97957.34;;;12.21
81399;BMP280;70853;50.074;10.224;2023-08-30T02:55:13;97956.97;;;12.24
81399;BMP280;70853;50.074;10.224;2023-08-30T02:57:39;97948.53;;;12.28
81399;BMP280;70853;50.074;10.224;2023-08-30T03:00:05;97953.03;;;12.43
81399;BMP280;70853;50.074;10.224;2023-08-30T03:02:32;97953.66;;;12.51
81399;BMP280;70853;50.074;10.224;2023-08-30T03:05:02;97914.56;;;12.38
81399;BMP280;70853;50.074;10.224;2023-08-30T03:07:29;97947.38;;;12.56
81399;BMP280;70853;50.074;10.224;2023-08-30T03:09:56;97944.44;;;12.61
81399;BMP280;70853;50.074;10.224;2023-08-30T03:12:25;97952.78;;;12.48
81399;BMP280;70853;50.074;10.224;2023-08-30T03:14:51;97953.81;;;12.53
81399;BMP280;70853;50.074;10.224;2023-08-30T03:17:17;97953.19;;;12.27
81399;BMP280;70853;50.074;10.224;2023-08-30T03:19:43;97953.03;;;12.43
81399;BMP280;70853;50.074;10.224;2023-08-30T03:22:09;97951.22;;;12.45
81399;BMP280;70853;50.074;10.224;2023-08-30T03:24:34;97945.78;;;12.35
81399;BMP280;70853;50.074;10.224;2023-08-30T03:27:00;97949.53;;;12.32
81399;BMP280;70853;50.074;10.224;2023-08-30T03:29:26;97955.63;;;12.50
81399;BMP280;70853;50.074;10.224;2023-08-30T03:31:52;97952.72;;;12.56
81399;BMP280;70853;50.074;10.224;2023-08-30T03:34:17;97955.47;;;12.65
81399;BMP280;70853;50.074;10.224;2023-08-30T03:36:45;97946.25;;;12.76
81399;BMP280;70853;50.074;10.224;2023-08-30T03:39:16;97934.56;;;12.81
81399;BMP280;70853;50.074;10.224;2023-08-30T03:41:41;97915.03;;;12.44
81399;BMP280;70853;50.074;10.224;2023-08-30T03:44:07;97936.59;;;12.29
81399;BMP280;70853;50.074;10.224;2023-08-30T03:46:33;97933.81;;;12.36
81399;BMP280;70853;50.074;10.224;2023-08-30T03:48:59;97943.81;;;12.53
81399;BMP280;70853;50.074;10.224;2023-08-30T03:51:25;97942.09;;;12.65
81399;BMP280;70853;50.074;10.224;2023-08-30T03:53:50;97935.00;;;12.43
81399;BMP280;70853;50.074;10.224;2023-08-30T03:56:16;97936.09;;;12.57
81399;BMP280;70853;50.074;10.224;2023-08-30T03:58:42;97934.00;;;12.56
81399;BMP280;70853;50.074;10.224;2023-08-30T04:01:07;97946.19;;;12.49
81399;BMP280;70853;50.074;10.224;2023-08-30T04:03:33;97939.34;;;12.56
81399;BMP280;70853;50.074;10.224;2023-08-30T04:06:00;97943.97;;;12.72
81399;BMP280;70853;50.074;10.224;2023-08-30T04:08:25;97943.81;;;12.70
81399;BMP280;70853;50.074;10.224;2023-08-30T04:10:54;97941.44;;;12.57
81399;BMP280;70853;50.074;10.224;2023-08-30T04:13:19;97935.84;;;12.63
81399;BMP280;70853;50.074;10.224;2023-08-30T04:15:45;97937.66;;;12.77
81399;BMP280;70853;50.074;10.224;2023-08-30T04:18:11;97939.16;;;12.71
81399;BMP280;70853;50.074;10.224;2023-08-30T04:20:36;97937.41;;;12.83
81399;BMP280;70853;50.074;10.224;2023-08-30T04:23:08;97919.09;;;12.62
81399;BMP280;70853;50.074;10.224;2023-08-30T04:25:34;97930.19;;;12.76
81399;BMP280;70853;50.074;10.224;2023-08-30T04:28:01;97935.59;;;12.86
81399;BMP280;70853;50.074;10.224;2023-08-30T04:30:27;97946.16;;;12.83
81399;BMP280;70853;50.074;10.224;2023-08-30T04:32:52;97931.78;;;12.89
81399;BMP280;70853;50.074;10.224;2023-08-30T04:35:19;97934.03;;;12.82
81399;BMP280;70853;50.074;10.224;2023-08-30T04:37:45;97940.16;;;12.93
81399;BMP280;70853;50.074;10.224;2023-08-30T04:40:12;97937.28;;;13.08
81399;BMP280;70853;50.074;10.224;2023-08-30T04:42:38;97940.09;;;12.83
81399;BMP280;70853;50.074;10.224;2023-08-30T04:45:06;97949.47;;;12.40
81399;BMP280;70853;50.074;10.224;2023-08-30T04:47:52;97952.63;;;12.29
81399;BMP280;70853;50.074;10.224;2023-08-30T04:50:18;97946.47;;;12.19
81399;BMP280;70853;50.074;10.224;2023-08-30T04:52:44;97947.03;;;12.34
81399;BMP280;70853;50.074;10.224;2023-08-30T04:55:10;97944.38;;;12.52
81399;BMP280;70853;50.074;10.224;2023-08-30T04:57:36;97941.13;;;12.70
81399;BMP280;70853;50.074;10.224;2023-08-30T05:00:03;97944.75;;;12.82
81399;BMP280;70853;50.074;10.224;2023-08-30T05:02:31;97952.59;;;12.80
81399;BMP280;70853;50.074;10.224;2023-08-30T05:05:01;97953.19;;;12.79
81399;BMP280;70853;50.074;10.224;2023-08-30T05:07:26;97952.66;;;12.90
81399;BMP280;70853;50.074;10.224;2023-08-30T05:09:52;97940.19;;;12.75
81399;BMP280;70853;50.074;10.224;2023-08-30T05:12:18;97951.38;;;12.64
81399;BMP280;70853;50.074;10.224;2023-08-30T05:14:43;97942.16;;;12.58
81399;BMP280;70853;50.074;10.224;2023-08-30T05:17:09;97945.63;;;12.51
81399;BMP280;70853;50.074;10.224;2023-08-30T05:19:34;97932.94;;;12.68
81399;BMP280;70853;50.074;10.224;2023-08-30T05:22:01;97947.78;;;12.96
81399;BMP280;70853;50.074;10.224;2023-08-30T05:24:27;97933.41;;;12.74
81399;BMP280;70853;50.074;10.224;2023-08-30T05:26:53;97944.81;;;12.75
81399;BMP280;70853;50.074;10.224;2023-08-30T05:29:21;97938.88;;;12.94
81399;BMP280;70853;50.074;10.224;2023-08-30T05:31:47;97951.66;;;13.12
81399;BMP280;70853;50.074;10.224;2023-08-30T05:34:25;97952.38;;;13.13
81399;BMP280;70853;50.074;10.224;2023-08-30T05:37:10;97953.94;;;13.16
81399;BMP280;70853;50.074;10.224;2023-08-30T05:39:56;97946.31;;;13.12
81399;BMP280;70853;50.074;10.224;2023-08-30T05:42:22;97952.72;;;13.26
81399;BMP280;70853;50.074;10.224;2023-08-30T05:44:47;97948.16;;;13.19
81399;BMP280;70853;50.074;10.224;2023-08-30T05:47:13;97951.53;;;13.37
81399;BMP280;70853;50.074;10.224;2023-08-30T05:49:40;97939.41;;;13.46
81399;BMP280;70853;50.074;10.224;2023-08-30T05:52:06;97950.72;;;13.54
81399;BMP280;70853;50.074;10.224;2023-08-30T05:54:32;97940.72;;;13.54
81399;BMP280;70853;50.074;10.224;2023-08-30T05:56:59;97945.25;;;13.71
81399;BMP280;70853;50.074;10.224;2023-08-30T05:59:25;97950.25;;;13.84
81399;BMP280;70853;50.074;10.224;2023-08-30T06:01:50;97944.63;;;13.90
81399;BMP280;70853;50.074;10.224;2023-08-30T06:04:16;97952.94;;;13.84
81399;BMP280;70853;50.074;10.224;2023-08-30T06:06:42;97935.44;;;13.83
81399;BMP280;70853;50.074;10.224;2023-08-30T06:09:07;97946.03;;;13.91
81399;BMP280;70853;50.074;10.224;2023-08-30T06:11:33;97939.97;;;13.90
81399;BMP280;70853;50.074;10.224;2023-08-30T06:13:59;97948.75;;;14.00
81399;BMP280;70853;50.074;10.224;2023-08-30T06:16:25;97941.97;;;14.09
81399;BMP280;70853;50.074;10.224;2023-08-30T06:18:50;97942.38;;;14.05
81399;BMP280;70853;50.074;10.224;2023-08-30T06:21:16;97939.59;;;14.13
81399;BMP280;70853;50.074;10.224;2023-08-30T06:23:42;97943.38;;;14.00
81399;BMP280;70853;50.074;10.224;2023-08-30T06:26:07;97937.59;;;14.04
81399;BMP280;70853;50.074;10.224;2023-08-30T06:28:33;97938.28;;;14.04
81399;BMP280;70853;50.074;10.224;2023-08-30T06:30:59;97928.97;;;14.05
81399;BMP280;70853;50.074;10.224;2023-08-30T06:33:24;97932.06;;;14.02
81399;BMP280;70853;50.074;10.224;2023-08-30T06:35:50;97937.19;;;14.07
81399;BMP280;70853;50.074;10.224;2023-08-30T06:38:16;97936.31;;;14.15
81399;BMP280;70853;50.074;10.224;2023-08-30T06:40:45;97941.13;;;14.06
81399;BMP280;70853;50.074;10.224;2023-08-30T06:43:12;97939.00;;;14.05
81399;BMP280;70853;50.074;10.224;2023-08-30T06:45:41;97937.28;;;13.81
81399;BMP280;70853;50.074;10.224;2023-08-30T06:48:07;97947.72;;;13.77
81399;BMP280;70853;50.074;10.224;2023-08-30T06:50:36;97945.03;;;13.77
81399;BMP280;70853;50.074;10.224;2023-08-30T06:53:02;97937.94;;;13.72
81399;BMP280;70853;50.074;10.224;2023-08-30T06:55:28;97948.84;;;13.93
81399;BMP280;70853;50.074;10.224;2023-08-30T06:57:55;97944.63;;;13.90
81399;BMP280;70853;50.074;10.224;2023-08-30T07:00:20;97947.09;;;13.68
81399;BMP280;70853;50.074;10.224;2023-08-30T07:02:46;97941.81;;;13.88
81399;BMP280;70853;50.074;10.224;2023-08-30T07:05:12;97943.06;;;13.87
81399;BMP280;70853;50.074;10.224;2023-08-30T07:07:38;97946.75;;;14.01
81399;BMP280;70853;50.074;10.224;2023-08-30T07:10:05;97940.38;;;13.87
81399;BMP280;70853;50.074;10.224;2023-08-30T07:12:31;97940.38;;;13.96
81399;BMP280;70853;50.074;10.224;2023-08-30T07:14:56;97943.94;;;14.08
81399;BMP280;70853;50.074;10.224;2023-08-30T07:17:22;97930.50;;;13.80
81399;BMP280;70853;50.074;10.224;2023-08-30T07:19:49;97933.47;;;13.93
81399;BMP280;70853;50.074;10.224;2023-08-30T07:22:14;97919.34;;;13.83
81399;BMP280;70853;50.074;10.224;2023-08-30T07:24:44;97936.13;;;13.84
81399;BMP280;70853;50.074;10.224;2023-08-30T07:27:11;97922.03;;;13.93
81399;BMP280;70853;50.074;10.224;2023-08-30T07:29:39;97934.38;;;13.59
81399;BMP280;70853;50.074;10.224;2023-08-30T07:32:07;97928.47;;;13.61
81399;BMP280;70853;50.074;10.224;2023-08-30T07:34:33;97929.78;;;13.79
81399;BMP280;70853;50.074;10.224;2023-08-30T07:36:58;97933.06;;;13.87
81399;BMP280;70853;50.074;10.224;2023-08-30T07:39:24;97922.63;;;14.01
81399;BMP280;70853;50.074;10.224;2023-08-30T07:41:49;97927.72;;;14.26
81399;BMP280;70853;50.074;10.224;2023-08-30T07:44:15;97938.88;;;14.32
81399;BMP280;70853;50.074;10.224;2023-08-30T07:46:41;97943.25;;;14.27
81399;BMP280;70853;50.074;10.224;2023-08-30T07:49:07;97939.84;;;14.27
81399;BMP280;70853;50.074;10.224;2023-08-30T07:51:32;97939.72;;;14.53
81399;BMP280;70853;50.074;10.224;2023-08-30T07:53:58;97930.53;;;14.66
81399;BMP280;70853;50.074;10.224;2023-08-30T07:56:24;97940.66;;;14.87
81399;BMP280;70853;50.074;10.224;2023-08-30T07:58:49;97941.47;;;14.99
81399;BMP280;70853;50.074;10.224;2023-08-30T08:01:15;97939.22;;;14.95
81399;BMP280;70853;50.074;10.224;2023-08-30T08:03:40;97936.16;;;15.20
81399;BMP280;70853;50.074;10.224;2023-08-30T08:06:07;97941.50;;;14.89
81399;BMP280;70853;50.074;10.224;2023-08-30T08:08:32;97943.13;;;15.14
81399;BMP280;70853;50.074;10.224;2023-08-30T08:11:01;97925.00;;;15.14
81399;BMP280;70853;50.074;10.224;2023-08-30T08:13:26;97933.78;;;15.24
81399;BMP280;70853;50.074;10.224;2023-08-30T08:15:52;97939.13;;;15.24
81399;BMP280;70853;50.074;10.224;2023-08-30T08:18:17;97943.28;;;15.47
81399;BMP280;70853;50.074;10.224;2023-08-30T08:20:43;97932.53;;;15.37
81399;BMP280;70853;50.074;10.224;2023-08-30T08:23:08;97935.03;;;15.54
81399;BMP280;70853;50.074;10.224;2023-08-30T08:25:34;97936.69;;;15.59
81399;BMP280;70853;50.074;10.224;2023-08-30T08:27:59;97938.25;;;15.83
81399;BMP280;70853;50.074;10.224;2023-08-30T08:30:25;97931.06;;;15.76
81399;BMP280;70853;50.074;10.224;2023-08-30T08:32:50;97925.75;;;15.67
81399;BMP280;70853;50.074;10.224;2023-08-30T08:35:16;97938.50;;;15.66
81399;BMP280;70853;50.074;10.224;2023-08-30T08:37:42;97930.38;;;15.76
81399;BMP280;70853;50.074;10.224;2023-08-30T08:40:08;97913.97;;;15.51
81399;BMP280;70853;50.074;10.224;2023-08-30T08:42:34;97940.06;;;15.60
81399;BMP280;70853;50.074;10.224;2023-08-30T08:45:01;97931.44;;;15.61
81399;BMP280;70853;50.074;10.224;2023-08-30T08:47:29;97932.09;;;15.50
81399;BMP280;70853;50.074;10.224;2023-08-30T08:49:55;97942.97;;;15.21
81399;BMP280;70853;50.074;10.224;2023-08-30T08:52:21;97940.59;;;15.47
81399;BMP280;70853;50.074;10.224;2023-08-30T08:54:47;97931.91;;;15.58
81399;BMP280;70853;50.074;10.224;2023-08-30T08:57:13;97941.00;;;15.74
81399;BMP280;70853;50.074;10.224;2023-08-30T08:59:38;97934.66;;;16.12
81399;BMP280;70853;50.074;10.224;2023-08-30T09:02:04;97941.31;;;16.11
81399;BMP280;70853;50.074;10.224;2023-08-30T09:04:31;97938.34;;;15.64
81399;BMP280;70853;50.074;10.224;2023-08-30T09:06:58;97929.97;;;15.70
81399;BMP280;70853;50.074;10.224;2023-08-30T09:09:24;97937.53;;;16.04
81399;BMP280;70853;50.074;10.224;2023-08-30T09:11:50;97939.56;;;16.37
81399;BMP280;70853;50.074;10.224;2023-08-30T09:14:15;97934.75;;;16.35
81399;BMP280;70853;50.074;10.224;2023-08-30T09:16:42;97929.66;;;15.97
81399;BMP280;70853;50.074;10.224;2023-08-30T09:19:07;97930.88;;;16.05
81399;BMP280;70853;50.074;10.224;2023-08-30T09:21:35;97925.47;;;16.26
81399;BMP280;70853;50.074;10.224;2023-08-30T09:24:02;97933.97;;;16.56
81399;BMP280;70853;50.074;10.224;2023-08-30T09:26:29;97927.66;;;16.51
81399;BMP280;70853;50.074;10.224;2023-08-30T09:29:04;97933.25;;;16.44
81399;BMP280;70853;50.074;10.224;2023-08-30T09:31:36;97929.19;;;16.54
81399;BMP280;70853;50.074;10.224;2023-08-30T09:34:03;97939.66;;;16.39
81399;BMP280;70853;50.074;10.224;2023-08-30T09:36:42;97929.13;;;16.31
81399;BMP280;70853;50.074;10.224;2023-08-30T09:39:12;97928.25;;;16.61
81399;BMP280;70853;50.074;10.224;2023-08-30T09:42:04;97934.75;;;16.79
81399;BMP280;70853;50.074;10.224;2023-08-30T09:44:30;97923.47;;;16.71
81399;BMP280;70853;50.074;10.224;2023-08-30T09:46:55;97928.66;;;16.79
81399;BMP280;70853;50.074;10.224;2023-08-30T09:49:26;97929.78;;;16.76
81399;BMP280;70853;50.074;10.224;2023-08-30T09:51:53;97919.53;;;16.96
81399;BMP280;70853;50.074;10.224;2023-08-30T09:54:23;97926.19;;;17.30
81399;BMP280;70853;50.074;10.224;2023-08-30T09:56:49;97934.97;;;17.07
81399;BMP280;70853;50.074;10.224;2023-08-30T09:59:18;97923.75;;;16.99
81399;BMP280;70853;50.074;10.224;2023-08-30T10:01:46;97924.44;;;17.22
81399;BMP280;70853;50.074;10.224;2023-08-30T10:04:14;97922.81;;;17.17
81399;BMP280;70853;50.074;10.224;2023-08-30T10:06:40;97905.34;;;17.30
81399;BMP280;70853;50.074;10.224;2023-08-30T10:09:08;97906.41;;;17.13
81399;BMP280;70853;50.074;10.224;2023-08-30T10:11:37;97905.28;;;17.53
81399;BMP280;70853;50.074;10.224;2023-08-30T10:14:04;97906.16;;;17.33
81399;BMP280;70853;50.074;10.224;2023-08-30T10:16:45;97897.28;;;17.67
81399;BMP280;70853;50.074;10.224;2023-08-30T10:21:44;97903.06;;;17.98
81399;BMP280;70853;50.074;10.224;2023-08-30T10:24:12;97893.66;;;17.99
81399;BMP280;70853;50.074;10.224;2023-08-30T10:26:41;97884.16;;;17.98
81399;BMP280;70853;50.074;10.224;2023-08-30T10:29:10;97895.56;;;17.85
81399;BMP280;70853;50.074;10.224;2023-08-30T10:31:38;97888.44;;;18.29
81399;BMP280;70853;50.074;10.224;2023-08-30T10:34:13;97862.34;;;18.19
81399;BMP280;70853;50.074;10.224;2023-08-30T10:36:39;97883.50;;;18.11
81399;BMP280;70853;50.074;10.224;2023-08-30T10:39:11;97885.16;;;18.30
81399;BMP280;70853;50.074;10.224;2023-08-30T10:41:37;97883.38;;;18.35
81399;BMP280;70853;50.074;10.224;2023-08-30T10:44:03;97876.03;;;18.24
81399;BMP280;70853;50.074;10.224;2023-08-30T10:46:33;97879.75;;;18.30
81399;BMP280;70853;50.074;10.224;2023-08-30T10:49:19;97871.56;;;18.42
81399;BMP280;70853;50.074;10.224;2023-08-30T10:51:45;97871.69;;;18.44
81399;BMP280;70853;50.074;10.224;2023-08-30T10:54:13;97872.75;;;18.78
81399;BMP280;70853;50.074;10.224;2023-08-30T10:56:56;97863.31;;;18.79
81399;BMP280;70853;50.074;10.224;2023-08-30T10:59:23;97859.72;;;18.74
81399;BMP280;70853;50.074;10.224;2023-08-30T11:01:51;97856.09;;;18.83
81399;BMP280;70853;50.074;10.224;2023-08-30T11:04:18;97849.09;;;18.51
81399;BMP280;70853;50.074;10.224;2023-08-30T11:06:45;97847.00;;;18.49
81399;BMP280;70853;50.074;10.224;2023-08-30T11:09:16;97845.69;;;18.37
81399;BMP280;70853;50.074;10.224;2023-08-30T11:11:46;97843.91;;;18.16
81399;BMP280;70853;50.074;10.224;2023-08-30T11:14:13;97840.19;;;18.09
81399;BMP280;70853;50.074;10.224;2023-08-30T11:16:39;97846.25;;;18.22
81399;BMP280;70853;50.074;10.224;2023-08-30T11:19:07;97842.72;;;18.19
81399;BMP280;70853;50.074;10.224;2023-08-30T11:21:34;97840.38;;;18.00
81399;BMP280;70853;50.074;10.224;2023-08-30T11:24:03;97845.63;;;17.84
81399;BMP280;70853;50.074;10.224;2023-08-30T11:26:29;97853.47;;;17.80
81399;BMP280;70853;50.074;10.224;2023-08-30T11:28:54;97846.69;;;17.79
81399;BMP280;70853;50.074;10.224;2023-08-30T11:31:26;97838.28;;;17.73
81399;BMP280;70853;50.074;10.224;2023-08-30T11:33:54;97848.63;;;17.65
81399;BMP280;70853;50.074;10.224;2023-08-30T11:36:21;97847.31;;;17.66
81399;BMP280;70853;50.074;10.224;2023-08-30T11:38:49;97848.16;;;17.08
81399;BMP280;70853;50.074;10.224;2023-08-30T11:41:15;97846.16;;;16.97
81399;BMP280;70853;50.074;10.224;2023-08-30T11:43:41;97841.22;;;17.29
81399;BMP280;70853;50.074;10.224;2023-08-30T11:46:08;97849.84;;;17.50
81399;BMP280;70853;50.074;10.224;2023-08-30T11:48:34;97850.03;;;17.66
81399;BMP280;70853;50.074;10.224;2023-08-30T11:51:00;97831.09;;;17.78
81399;BMP280;70853;50.074;10.224;2023-08-30T11:53:26;97828.50;;;17.80
81399;BMP280;70853;50.074;10.224;2023-08-30T11:55:53;97822.16;;;17.75
81399;BMP280;70853;50.074;10.224;2023-08-30T11:58:18;97831.59;;;17.37
81399;BMP280;70853;50.074;10.224;2023-08-30T12:00:45;97835.78;;;17.77
81399;BMP280;70853;50.074;10.224;2023-08-30T12:03:14;97838.81;;;17.83
81399;BMP280;70853;50.074;10.224;2023-08-30T12:05:49;97837.03;;;18.13
81399;BMP280;70853;50.074;10.224;2023-08-30T12:10:45;97836.47;;;18.03
81399;BMP280;70853;50.074;10.224;2023-08-30T12:13:23;97840.19;;;18.09
81399;BMP280;70853;50.074;10.224;2023-08-30T12:15:52;97832.28;;;18.00
81399;BMP280;70853;50.074;10.224;2023-08-30T12:18:28;97829.75;;;17.90
81399;BMP280;70853;50.074;10.224;2023-08-30T12:20:59;97825.81;;;17.80
81399;BMP280;70853;50.074;10.224;2023-08-30T12:23:26;97826.03;;;17.84
81399;BMP280;70853;50.074;10.224;2023-08-30T12:26:05;97820.28;;;18.03
81399;BMP280;70853;50.074;10.224;2023-08-30T12:28:41;97814.81;;;18.14
81399;BMP280;70853;50.074;10.224;2023-08-30T12:31:10;97819.34;;;18.24
81399;BMP280;70853;50.074;10.224;2023-08-30T12:33:37;97816.88;;;18.41
81399;BMP280;70853;50.074;10.224;2023-08-30T12:36:03;97807.56;;;18.58
81399;BMP280;70853;50.074;10.224;2023-08-30T12:38:29;97809.69;;;18.73
81399;BMP280;70853;50.074;10.224;2023-08-30T12:40:55;97815.56;;;18.83
81399;BMP280;70853;50.074;10.224;2023-08-30T12:43:22;97811.88;;;18.90
81399;BMP280;70853;50.074;10.224;2023-08-30T12:45:49;97816.75;;;18.94
81399;BMP280;70853;50.074;10.224;2023-08-30T12:48:16;97800.53;;;19.07
81399;BMP280;70853;50.074;10.224;2023-08-30T12:50:46;97815.28;;;19.04
81399;BMP280;70853;50.074;10.224;2023-08-30T12:53:12;97799.06;;;19.34
81399;BMP280;70853;50.074;10.224;2023-08-30T12:55:38;97805.34;;;19.09
81399;BMP280;70853;50.074;10.224;2023-08-30T12:58:06;97812.09;;;19.37
81399;BMP280;70853;50.074;10.224;2023-08-30T13:00:33;97804.44;;;19.47
81399;BMP280;70853;50.074;10.224;2023-08-30T13:02:59;97802.31;;;19.46
81399;BMP280;70853;50.074;10.224;2023-08-30T13:05:24;97796.84;;;19.89
81399;BMP280;70853;50.074;10.224;2023-08-30T13:07:50;97797.91;;;19.68
81399;BMP280;70853;50.074;10.224;2023-08-30T13:10:16;97792.47;;;19.97
81399;BMP280;70853;50.074;10.224;2023-08-30T13:12:42;97784.88;;;20.09
81399;BMP280;70853;50.074;10.224;2023-08-30T13:15:08;97784.06;;;20.07
81399;BMP280;70853;50.074;10.224;2023-08-30T13:17:34;97787.13;;;20.15
81399;BMP280;70853;50.074;10.224;2023-08-30T13:19:59;97784.59;;;20.03
81399;BMP280;70853;50.074;10.224;2023-08-30T13:22:27;97789.56;;;20.25
81399;BMP280;70853;50.074;10.224;2023-08-30T13:24:53;97778.66;;;20.23
81399;BMP280;70853;50.074;10.224;2023-08-30T13:27:19;97777.59;;;20.30
81399;BMP280;70853;50.074;10.224;2023-08-30T13:29:45;97787.50;;;20.07
81399;BMP280;70853;50.074;10.224;2023-08-30T13:32:10;97781.06;;;20.48
81399;BMP280;70853;50.074;10.224;2023-08-30T13:34:37;97773.41;;;20.11
81399;BMP280;70853;50.074;10.224;2023-08-30T13:37:02;97772.47;;;20.04
81399;BMP280;70853;50.074;10.224;2023-08-30T13:39:28;97775.84;;;20.21
81399;BMP280;70853;50.074;10.224;2023-08-30T13:41:54;97775.00;;;20.32
81399;BMP280;70853;50.074;10.224;2023-08-30T13:44:19;97768.81;;;20.63
81399;BMP280;70853;50.074;10.224;2023-08-30T13:46:45;97760.44;;;20.74
81399;BMP280;70853;50.074;10.224;2023-08-30T13:49:14;97761.31;;;20.79
81399;BMP280;70853;50.074;10.224;2023-08-30T13:51:41;97760.75;;;20.82
81399;BMP280;70853;50.074;10.224;2023-08-30T13:54:06;97752.56;;;21.16
81399;BMP280;70853;50.074;10.224;2023-08-30T13:56:32;97765.22;;;20.74
81399;BMP280;70853;50.074;10.224;2023-08-30T13:58:57;97755.94;;;20.96
81399;BMP280;70853;50.074;10.224;2023-08-30T14:01:23;97760.31;;;20.88
81399;BMP280;70853;50.074;10.224;2023-08-30T14:03:49;97760.78;;;21.35
81399;BMP280;70853;50.074;10.224;2023-08-30T14:06:14;97757.47;;;21.56
81399;BMP280;70853;50.074;10.224;2023-08-30T14:08:40;97755.66;;;21.81